SBCZ/CZS METAR and TAF weather

Enter ICAO airport designator
Station Type Date Time Source
SBCZ METAR 2022/05/23 14:00 UTC NOAA

SBCZ 231400Z 35005KT CAVOK 28/24 Q1016


Station Type Date Time Source
SBCZ Decoded METAR 2022/05/23 14:00 UTC NOAA

Cruzeiro Do Sul, Brazil (SBCZ) 07-38S 072-40W
May 23, 2022 - 10:00 AM EDT / 2022.05.23 1400 UTC
Wind: from the N (350 degrees) at 6 MPH (5 KT):0
Visibility: greater than 7 mile(s):0
Temperature: 82 F (28 C)
Dew Point: 75 F (24 C)
Relative Humidity: 78%
Pressure (altimeter): 30.00 in. Hg (1016 hPa)
ob: SBCZ 231400Z 35005KT CAVOK 28/24 Q1016
cycle: 14

Station Type Date Time Source
SBCZ TAF 2022/05/23 12:03 UTC NOAA

TAF TAF SBCZ 230944Z 2312/2412 00000KT 8000 FEW020 TX31/2318Z TN22/2410Z
BECMG 2312/2314 02005KT
BECMG 2318/2320 33005KT SCT030 FEW035TCU PROB30 2321/2323 TS SCT030 FEW035CB
BECMG 2323/2401 01005KT FEW023
RMK PHC

Example: see airport list